Time;durP1;ratioP1;P1;durP2;ratioP2;P2;SDS_P1;SDS_P2;PMS_P1;PMS_P2;Temp;Humidity;BMP_temperature;BMP_pressure;BME280_temperature;BME280_humidity;BME280_pressure;Samples;Min_cycle;Max_cycle;Signal;HPM_P1;HPM_P2
2022/07/02 00:00:56;;;;;;;4.82;2.08;;;14.80;99.90;;;;;;5035395;28;20041;-61
2022/07/02 00:03:33;;;;;;;5.43;1.95;;;14.70;99.90;;;;;;5054298;28;20043;-61
2022/07/02 00:06:01;;;;;;;7.60;2.75;;;14.70;99.90;;;;;;5053919;28;20063;-61
2022/07/02 00:08:28;;;;;;;5.43;1.92;;;14.70;99.90;;;;;;5052268;28;20036;-62
2022/07/02 00:10:56;;;;;;;8.05;2.50;;;14.70;99.90;;;;;;5052484;28;20045;-61
2022/07/02 00:13:23;;;;;;;4.50;1.73;;;14.70;99.90;;;;;;5053161;28;20084;-61
2022/07/02 00:15:49;;;;;;;7.47;2.63;;;14.70;99.90;;;;;;5051780;28;20047;-62
2022/07/02 00:18:15;;;;;;;7.30;2.38;;;14.70;99.90;;;;;;5054014;28;20036;-61
2022/07/02 00:20:42;;;;;;;7.53;2.10;;;14.70;99.90;;;;;;5054046;28;20049;-61
2022/07/02 00:23:09;;;;;;;5.03;2.15;;;14.70;99.90;;;;;;5052958;28;20052;-61
2022/07/02 00:26:02;;;;;;;7.80;2.30;;;14.60;99.90;;;;;;5052674;28;20041;-62
2022/07/02 00:28:29;;;;;;;6.53;2.20;;;;;;;;;;5052832;28;20481;-61
2022/07/02 00:30:55;;;;;;;6.07;2.28;;;;;;;;;;5052157;28;20072;-62
2022/07/02 00:33:24;;;;;;;5.53;2.22;;;;;;;;;;5052460;28;20478;-61
2022/07/02 00:35:50;;;;;;;6.00;2.10;;;;;;;;;;5051528;28;20049;-62
2022/07/02 00:38:16;;;;;;;7.93;2.20;;;;;;;;;;5052232;28;20080;-62
2022/07/02 00:40:43;;;;;;;6.85;2.38;;;;;;;;;;5053555;28;20044;-61
2022/07/02 00:43:10;;;;;;;6.70;2.08;;;;;;;;;;5052430;28;20048;-61
2022/07/02 00:45:38;;;;;;;6.40;2.13;;;;;;;;;;5052344;28;20033;-62
2022/07/02 00:48:04;;;;;;;7.03;2.35;;;;;;;;;;5053095;28;20044;-61
2022/07/02 00:50:30;;;;;;;8.10;2.60;;;;;;;;;;5051510;28;20044;-61
2022/07/02 00:52:56;;;;;;;6.82;2.75;;;;;;;;;;5052906;28;20103;-61
2022/07/02 00:55:22;;;;;;;6.20;2.30;;;;;;;;;;5052037;28;20090;-62
2022/07/02 00:57:48;;;;;;;5.38;2.42;;;;;;;;;;5050244;28;20592;-62
2022/07/02 01:00:15;;;;;;;7.40;3.03;;;14.70;99.90;;;;;;5051775;28;20048;-61
2022/07/02 01:02:45;;;;;;;6.95;2.28;;;14.60;99.90;;;;;;5053105;28;20040;-62
2022/07/02 01:05:14;;;;;;;7.10;2.85;;;14.60;99.90;;;;;;5052076;28;20045;-62
2022/07/02 01:07:44;;;;;;;6.00;2.60;;;14.40;99.90;;;;;;5051862;28;20052;-61
2022/07/02 01:10:17;;;;;;;6.82;2.40;;;14.50;99.90;;;;;;5052841;28;20040;-61
2022/07/02 01:12:48;;;;;;;6.35;2.55;;;14.50;99.90;;;;;;5051132;28;20043;-61
2022/07/02 01:15:15;;;;;;;7.50;2.55;;;14.50;99.90;;;;;;5051536;28;20041;-61
2022/07/02 01:17:41;;;;;;;6.22;2.58;;;14.40;99.90;;;;;;5050937;28;20520;-61
2022/07/02 01:20:08;;;;;;;7.80;2.42;;;14.40;99.90;;;;;;5052178;28;20414;-61
2022/07/02 01:22:44;;;;;;;6.63;2.30;;;14.40;99.90;;;;;;5051762;28;20059;-61
2022/07/02 01:25:10;;;;;;;9.13;2.63;;;14.40;99.90;;;;;;5050448;28;20049;-61
2022/07/02 01:27:36;;;;;;;6.72;2.75;;;14.30;99.90;;;;;;5051585;28;20037;-61
2022/07/02 01:30:02;;;;;;;4.78;2.42;;;;;;;;;;5034350;28;20037;-61
2022/07/02 01:32:28;;;;;;;5.78;1.95;;;;;;;;;;5051979;28;20041;-61
2022/07/02 01:35:01;;;;;;;7.30;2.60;;;;;;;;;;5050777;28;20047;-62
2022/07/02 01:37:27;;;;;;;8.85;2.55;;;;;;;;;;5034859;28;20045;-61
2022/07/02 01:39:53;;;;;;;8.07;2.70;;;;;;;;;;5049789;28;20037;-61
2022/07/02 01:42:19;;;;;;;8.77;3.05;;;;;;;;;;5052757;28;20048;-61
2022/07/02 01:44:45;;;;;;;4.78;2.20;;;;;;;;;;5050998;28;20087;-61
2022/07/02 01:47:13;;;;;;;8.27;2.35;;;;;;;;;;5051445;28;20451;-61
2022/07/02 01:49:39;;;;;;;5.28;2.00;;;;;;;;;;5034645;28;20128;-62
2022/07/02 01:52:06;;;;;;;6.15;2.13;;;;;;;;;;5052046;28;20072;-61
2022/07/02 01:54:32;;;;;;;6.63;2.25;;;;;;;;;;5051607;28;20037;-61
2022/07/02 01:56:59;;;;;;;4.63;2.28;;;;;;;;;;5051851;28;20048;-61
2022/07/02 01:59:25;;;;;;;6.18;2.45;;;;;;;;;;5052109;28;20041;-61
2022/07/02 02:01:51;;;;;;;5.60;2.22;;;;;;;;;;5033835;28;20047;-61
2022/07/02 02:04:17;;;;;;;9.30;2.58;;;;;;;;;;5050860;28;20374;-61
2022/07/02 02:06:43;;;;;;;6.50;2.60;;;;;;;;;;5051810;28;20044;-61
2022/07/02 02:09:10;;;;;;;6.93;2.90;;;;;;;;;;5051331;28;20040;-61
2022/07/02 02:11:36;;;;;;;6.78;2.45;;;;;;;;;;5051052;28;20052;-61
2022/07/02 02:14:02;;;;;;;7.68;2.78;;;;;;;;;;5050692;28;20079;-61
2022/07/02 02:16:30;;;;;;;8.50;2.97;;;;;;;;;;5051088;28;20045;-61
2022/07/02 02:18:56;;;;;;;7.28;2.85;;;;;;;;;;5051745;28;20083;-61
2022/07/02 02:21:26;;;;;;;7.20;2.63;;;;;;;;;;5033229;28;20413;-61
2022/07/02 02:23:53;;;;;;;9.85;3.08;;;;;;;;;;5051843;28;20451;-61
2022/07/02 02:26:19;;;;;;;7.07;3.10;;;;;;;;;;5052037;28;20068;-61
2022/07/02 02:28:45;;;;;;;8.18;2.90;;;;;;;;;;5033035;28;20045;-61
2022/07/02 02:31:12;;;;;;;9.50;3.55;;;;;;;;;;5051735;28;20577;-61
2022/07/02 02:33:38;;;;;;;7.35;3.28;;;;;;;;;;5050863;28;20124;-61
2022/07/02 02:36:04;;;;;;;9.90;3.80;;;;;;;;;;5050767;28;20041;-62
2022/07/02 02:38:31;;;;;;;7.95;3.08;;;;;;;;;;5050852;28;20118;-61
2022/07/02 02:40:57;;;;;;;6.13;3.60;;;;;;;;;;5050074;28;20127;-62
2022/07/02 02:43:23;;;;;;;6.30;3.00;;;;;;;;;;5051163;28;20048;-62
2022/07/02 02:45:49;;;;;;;8.00;3.75;;;;;;;;;;5050263;28;20057;-61
2022/07/02 02:48:18;;;;;;;8.00;3.55;;;;;;;;;;5050697;28;20053;-61
2022/07/02 02:50:44;;;;;;;9.98;3.58;;;;;;;;;;5051238;28;20041;-61
2022/07/02 02:53:10;;;;;;;8.98;3.47;;;;;;;;;;5050401;28;20044;-61
2022/07/02 02:55:36;;;;;;;7.97;3.60;;;;;;;;;;5050269;28;20041;-62
2022/07/02 02:58:02;;;;;;;8.48;3.92;;;;;;;;;;5050579;28;20041;-61
2022/07/02 03:00:28;;;;;;;6.45;3.35;;;;;;;;;;5050442;28;20402;-61
2022/07/02 03:02:54;;;;;;;9.05;3.42;;;;;;;;;;5033377;28;20444;-61
2022/07/02 03:05:20;;;;;;;8.55;3.58;;;;;;;;;;5049716;28;20486;-61
2022/07/02 03:07:46;;;;;;;9.73;4.38;;;;;;;;;;5049980;28;20124;-61
2022/07/02 03:10:12;;;;;;;11.00;3.55;;;;;;;;;;5050768;28;20040;-61
2022/07/02 03:12:38;;;;;;;8.75;3.38;;;;;;;;;;5053242;28;20040;-61
2022/07/02 03:15:05;;;;;;;8.43;3.80;;;;;;;;;;5059566;28;20124;-61
2022/07/02 03:17:31;;;;;;;7.53;3.47;;;;;;;;;;5069268;28;20170;-61
2022/07/02 03:19:57;;;;;;;6.70;3.70;;;;;;;;;;5061413;28;20486;-61
2022/07/02 03:22:23;;;;;;;8.35;3.47;;;;;;;;;;5054341;28;20444;-61
2022/07/02 03:24:49;;;;;;;8.15;3.60;;;;;;;;;;5053958;28;20069;-61
2022/07/02 03:27:15;;;;;;;6.88;3.58;;;;;;;;;;5071691;28;20032;-61
2022/07/02 03:29:41;;;;;;;6.40;3.45;;;;;;;;;;5073808;28;20044;-62
2022/07/02 03:32:08;;;;;;;9.52;4.63;;;;;;;;;;5057913;28;20095;-61
2022/07/02 03:34:34;;;;;;;9.18;3.95;;;;;;;;;;5053668;28;20068;-61
2022/07/02 03:37:00;;;;;;;8.32;4.25;;;;;;;;;;5054253;28;20390;-61
2022/07/02 03:39:26;;;;;;;11.65;4.55;;;;;;;;;;5054060;28;20041;-61
2022/07/02 03:41:52;;;;;;;10.93;4.97;;;;;;;;;;5053257;28;20068;-61
2022/07/02 03:44:18;;;;;;;8.50;4.93;;;;;;;;;;5053425;28;20076;-61
2022/07/02 03:46:44;;;;;;;8.55;4.45;;;;;;;;;;5053892;28;20094;-61
2022/07/02 03:49:10;;;;;;;10.05;5.05;;;;;;;;;;5054425;28;20037;-61
2022/07/02 03:51:36;;;;;;;9.70;5.28;;;;;;;;;;5068193;28;20112;-62
2022/07/02 03:54:02;;;;;;;10.00;4.90;;;;;;;;;;5055929;28;20036;-61
2022/07/02 03:56:28;;;;;;;8.45;5.25;;;;;;;;;;5056794;28;20118;-61
2022/07/02 03:58:54;;;;;;;12.48;5.90;;;;;;;;;;5073706;28;20073;-61
2022/07/02 04:01:20;;;;;;;11.02;5.05;;;;;;;;;;5074088;28;20156;-61
2022/07/02 04:03:46;;;;;;;10.05;4.68;;;;;;;;;;5072878;28;20120;-61
2022/07/02 04:06:12;;;;;;;9.80;6.38;;;;;;;;;;5072251;28;20155;-61
2022/07/02 04:08:38;;;;;;;13.73;5.50;;;;;;;;;;5056006;28;20045;-61
2022/07/02 04:11:04;;;;;;;12.63;5.32;;;;;;;;;;5062114;28;20040;-61
2022/07/02 04:13:30;;;;;;;11.18;6.00;;;;;;;;;;5053585;28;20040;-62
2022/07/02 04:15:56;;;;;;;10.57;5.57;;;;;;;;;;5052490;28;20493;-61
2022/07/02 04:18:22;;;;;;;11.95;5.47;;;;;;;;;;5053224;28;20370;-62
2022/07/02 04:20:49;;;;;;;11.57;6.00;;;;;;;;;;5051638;28;20103;-62
2022/07/02 04:23:15;;;;;;;9.93;5.97;;;;;;;;;;5053755;28;20103;-62
2022/07/02 04:25:41;;;;;;;9.00;5.63;;;;;;;;;;5053769;28;20497;-62
2022/07/02 04:28:08;;;;;;;9.77;5.53;;;;;;;;;;5034719;28;20040;-62
2022/07/02 04:30:34;;;;;;;11.85;6.15;;;;;;;;;;5053952;28;20044;-62
2022/07/02 04:33:00;;;;;;;9.07;6.13;;;;;;;;;;5051248;28;20037;-62
2022/07/02 04:35:26;;;;;;;9.55;6.00;;;;;;;;;;5057683;28;20040;-61
2022/07/02 04:37:52;;;;;;;8.45;5.20;;;;;;;;;;5073611;28;20082;-61
2022/07/02 04:40:18;;;;;;;11.18;6.00;;;;;;;;;;5055826;28;20048;-62
2022/07/02 04:42:44;;;;;;;12.15;6.22;;;;;;;;;;5072783;28;20051;-62
2022/07/02 04:45:10;;;;;;;11.00;5.68;;;;;;;;;;5071913;28;20045;-62
2022/07/02 04:47:36;;;;;;;10.30;5.38;;;;;;;;;;5073333;28;20040;-62
2022/07/02 04:50:03;;;;;;;11.70;5.78;;;;;;;;;;5067364;28;20072;-62
2022/07/02 04:52:29;;;;;;;9.55;5.53;;;;;;;;;;5052221;28;20037;-61
2022/07/02 04:54:55;;;;;;;10.88;4.78;;;;;;;;;;5034756;28;20123;-62
2022/07/02 04:57:21;;;;;;;11.52;5.78;;;;;;;;;;5052986;28;20126;-61
2022/07/02 04:59:47;;;;;;;9.35;5.03;;;;;;;;;;5051813;28;20099;-62
2022/07/02 05:02:13;;;;;;;18.58;5.50;;;;;;;;;;5051678;28;20448;-62
2022/07/02 05:04:39;;;;;;;10.30;4.43;;;;;;;;;;5055209;28;20405;-62
2022/07/02 05:07:05;;;;;;;6.65;4.30;;;;;;;;;;5072607;28;20093;-62
2022/07/02 05:09:31;;;;;;;10.05;4.70;;;;;;;;;;5070428;28;20090;-62
2022/07/02 05:11:57;;;;;;;10.05;5.13;;;;;;;;;;5050759;28;20127;-62
2022/07/02 05:14:23;;;;;;;9.70;4.57;;;;;;;;;;5035567;28;20068;-62
2022/07/02 05:16:49;;;;;;;12.25;4.78;;;;;;;;;;5034104;28;20037;-61
2022/07/02 05:19:15;;;;;;;8.80;5.00;;;;;;;;;;5051387;28;20047;-61
2022/07/02 05:21:43;;;;;;;12.85;4.57;;;;;;;;;;5052782;28;20120;-62
2022/07/02 05:24:09;;;;;;;10.50;4.57;;;;;;;;;;5051459;28;20036;-62
2022/07/02 05:26:35;;;;;;;9.27;4.10;;;15.60;99.90;;;;;;5071579;28;20382;-62
2022/07/02 05:29:01;;;;;;;10.52;4.57;;;15.90;99.90;;;;;;5070557;28;20086;-62
2022/07/02 05:31:27;;;;;;;9.52;3.92;;;15.90;99.90;;;;;;5052002;28;20033;-62
2022/07/02 05:33:52;;;;;;;7.95;4.65;;;15.90;99.90;;;;;;5052291;28;20037;-62
2022/07/02 05:36:18;;;;;;;7.38;4.07;;;16.10;99.90;;;;;;5052466;28;20520;-62
2022/07/02 05:38:44;;;;;;;10.48;4.15;;;16.10;99.90;;;;;;5050410;28;20246;-61
2022/07/02 05:41:12;;;;;;;8.07;3.92;;;;;;;;;;5051071;28;20036;-61
2022/07/02 05:43:38;;;;;;;7.78;4.32;;;;;;;;;;5052414;28;20049;-62
2022/07/02 05:46:04;;;;;;;7.32;4.05;;;;;;;;;;5068494;28;20429;-62
2022/07/02 05:48:30;;;;;;;10.57;3.97;;;;;;;;;;5071421;28;20123;-62
2022/07/02 05:50:56;;;;;;;7.95;4.25;;;;;;;;;;5053620;28;20549;-62
2022/07/02 05:53:22;;;;;;;8.75;4.75;;;;;;;;;;5050606;28;20084;-62
2022/07/02 05:55:48;;;;;;;13.18;4.55;;;;;;;;;;5065509;28;20076;-62
2022/07/02 05:58:14;;;;;;;10.00;3.75;;;;;;;;;;5070726;28;20036;-62
2022/07/02 06:00:40;;;;;;;12.80;3.63;;;;;;;;;;5071772;28;20059;-62
2022/07/02 06:03:06;;;;;;;9.00;4.30;;;;;;;;;;5071852;28;20051;-61
2022/07/02 06:08:17;;;;;;;10.27;3.65;;;;;;;;;;5071712;28;20047;-62
2022/07/02 06:10:43;;;;;;;9.20;3.15;;;;;;;;;;5070466;28;20105;-61
2022/07/02 06:13:09;;;;;;;6.15;3.20;;;;;;;;;;5071328;28;20036;-62
2022/07/02 06:15:35;;;;;;;10.55;3.55;;;;;;;;;;5071086;28;20071;-62
2022/07/02 06:18:01;;;;;;;8.10;3.10;;;;;;;;;;5070583;28;20483;-62
2022/07/02 06:20:27;;;;;;;9.50;3.03;;;;;;;;;;5071110;28;20067;-61
2022/07/02 06:22:54;;;;;;;9.88;3.42;;;;;;;;;;5053605;28;20493;-61
2022/07/02 06:25:20;;;;;;;11.60;3.35;;;;;;;;;;5053913;28;20067;-62
2022/07/02 06:27:46;;;;;;;6.22;2.95;;;;;;;;;;5050920;28;20625;-62
2022/07/02 06:30:12;;;;;;;10.07;2.50;;;;;;;;;;5051672;28;20044;-62
2022/07/02 06:32:38;;;;;;;7.75;2.78;;;;;;;;;;5050720;28;20033;-62
2022/07/02 06:35:05;;;;;;;10.05;2.90;;;;;;;;;;5032843;28;20045;-62
2022/07/02 06:37:31;;;;;;;6.55;2.20;;;;;;;;;;5050587;28;20128;-62
2022/07/02 06:39:57;;;;;;;8.88;2.70;;;;;;;;;;5049800;28;20091;-62
2022/07/02 06:42:24;;;;;;;6.63;2.15;;;;;;;;;;5050771;28;20390;-62
2022/07/02 06:44:51;;;;;;;6.50;1.98;;;;;;;;;;5065742;28;20051;-62
2022/07/02 06:47:18;;;;;;;7.65;2.13;;;;;;;;;;5070279;28;20036;-62
2022/07/02 06:49:44;;;;;;;7.13;2.17;;;;;;;;;;5051416;28;20043;-62
2022/07/02 06:52:11;;;;;;;14.05;2.28;;;;;;;;;;5070280;28;20044;-62
2022/07/02 06:54:37;;;;;;;7.75;2.30;;;;;;;;;;5070252;28;20036;-62
2022/07/02 06:57:03;;;;;;;5.78;1.70;;;;;;;;;;5072184;28;20041;-62
2022/07/02 06:59:29;;;;;;;5.57;1.50;;;;;;;;;;5063628;28;20045;-62
2022/07/02 07:01:56;;;;;;;5.20;1.58;;;;;;;;;;5061737;28;20386;-62
2022/07/02 07:04:21;;;;;;;5.10;1.60;;;;;;;;;;5057924;28;20047;-62
2022/07/02 07:06:51;;;;;;;5.00;1.85;;;;;;;;;;5039879;28;20036;-62
2022/07/02 07:09:18;;;;;;;5.40;1.77;;;;;;;;;;5063737;28;20102;-62
2022/07/02 07:11:44;;;;;;;4.82;1.40;;;;;;;;;;5068359;28;20405;-61
2022/07/02 07:14:10;;;;;;;5.63;1.40;;;;;;;;;;5072158;28;20033;-62
2022/07/02 07:16:36;;;;;;;9.10;1.73;;;;;;;;;;5066571;28;20044;-62
2022/07/02 07:19:05;;;;;;;7.68;2.20;;;;;;;;;;5058390;28;20040;-62
2022/07/02 07:21:31;;;;;;;7.72;1.77;;;;;;;;;;5067833;28;20067;-62
2022/07/02 07:23:57;;;;;;;5.75;1.48;;;;;;;;;;5056169;28;20504;-62
2022/07/02 07:26:23;;;;;;;8.30;1.70;;;;;;;;;;5072040;28;20044;-64
2022/07/02 07:28:50;;;;;;;6.20;1.60;;;;;;;;;;5074698;28;20064;-63
2022/07/02 07:31:19;;;;;;;8.38;1.70;;;;;;;;;;5072898;28;20046;-63
2022/07/02 07:33:46;;;;;;;5.38;1.73;;;;;;;;;;5060015;28;20514;-62
2022/07/02 07:36:12;;;;;;;11.30;2.65;;;;;;;;;;5054509;28;20041;-62
2022/07/02 07:38:39;;;;;;;6.63;2.10;;;;;;;;;;5050869;28;20429;-62
2022/07/02 07:41:05;;;;;;;13.82;2.45;;;;;;;;;;5052063;28;20084;-62
2022/07/02 07:43:31;;;;;;;7.25;2.08;;;;;;;;;;5050767;28;20102;-62
2022/07/02 07:45:57;;;;;;;5.80;1.35;;;;;;;;;;5070856;28;20044;-62
2022/07/02 07:48:23;;;;;;;5.53;1.85;;;;;;;;;;5072684;28;20048;-62
2022/07/02 07:50:49;;;;;;;7.22;1.75;;;;;;;;;;5063921;28;20052;-63
2022/07/02 07:53:15;;;;;;;5.18;1.50;;;;;;;;;;5054562;28;20044;-62
2022/07/02 07:55:41;;;;;;;3.95;1.60;;;;;;;;;;5052901;28;20048;-62
2022/07/02 07:58:07;;;;;;;7.35;1.85;;;;;;;;;;5067504;28;20051;-62
2022/07/02 08:00:33;;;;;;;6.18;1.42;;;;;;;;;;5065876;28;20093;-62
2022/07/02 08:02:59;;;;;;;6.47;1.30;;;;;;;;;;5060484;28;20444;-62
2022/07/02 08:05:26;;;;;;;4.03;1.50;;;;;;;;;;5052976;28;20094;-62
2022/07/02 08:07:52;;;;;;;7.00;1.83;;;;;;;;;;5069858;28;20208;-63
2022/07/02 08:10:18;;;;;;;4.75;1.60;;;;;;;;;;5069188;28;20072;-62
2022/07/02 08:12:44;;;;;;;10.35;1.70;;;;;;;;;;5069559;28;20055;-62
2022/07/02 08:15:11;;;;;;;7.82;1.60;;;;;;;;;;5053623;28;20046;-62
2022/07/02 08:17:37;;;;;;;8.80;2.13;;;;;;;;;;5071950;28;20055;-62
2022/07/02 08:20:05;;;;;;;7.82;1.73;;;19.20;99.90;;;;;;5070434;28;20060;-62
2022/07/02 08:22:36;;;;;;;6.18;1.40;;;;;;;;;;5068338;28;20209;-62
2022/07/02 08:25:03;;;;;;;5.63;1.55;;;;;;;;;;5054570;28;20051;-63
2022/07/02 08:27:30;;;;;;;5.80;1.30;;;;;;;;;;5060385;28;20115;-63
2022/07/02 08:29:56;;;;;;;5.95;1.38;;;;;;;;;;5069635;28;20048;-62
2022/07/02 08:32:22;;;;;;;6.20;1.52;;;;;;;;;;5069182;28;20048;-62
2022/07/02 08:34:48;;;;;;;9.18;2.03;;;;;;;;;;5063316;28;20127;-62
2022/07/02 08:37:15;;;;;;;5.53;1.20;;;;;;;;;;5065092;28;20367;-62
2022/07/02 08:39:41;;;;;;;5.72;1.33;;;;;;;;;;5052775;28;20396;-63
2022/07/02 08:42:09;;;;;;;5.13;2.50;;;;;;;;;;5066787;28;20040;-62
2022/07/02 08:44:35;;;;;;;5.40;1.20;;;;;;;;;;5064156;28;20086;-62
2022/07/02 08:47:03;;;;;;;5.90;1.30;;;;;;;;;;5058554;28;20048;-62
2022/07/02 08:49:31;;;;;;;6.15;1.40;;;;;;;;;;5065607;28;20044;-63
2022/07/02 08:52:04;;;;;;;3.35;1.20;;;;;;;;;;5067093;28;20387;-63
2022/07/02 08:54:33;;;;;;;4.88;1.35;;;;;;;;;;5063106;28;20044;-62
2022/07/02 08:57:01;;;;;;;6.10;1.65;;;;;;;;;;5067012;28;20123;-63
2022/07/02 08:59:28;;;;;;;4.65;1.10;;;;;;;;;;5064032;28;20036;-63
2022/07/02 09:01:54;;;;;;;4.30;1.55;;;;;;;;;;5052280;28;20045;-63
2022/07/02 09:04:21;;;;;;;4.38;1.17;;;;;;;;;;5052180;28;20037;-62
2022/07/02 09:06:47;;;;;;;6.20;1.73;;;;;;;;;;5035053;28;20040;-64
2022/07/02 09:09:13;;;;;;;4.10;1.33;;;;;;;;;;5051515;28;20827;-63
2022/07/02 09:11:39;;;;;;;3.65;1.33;;;;;;;;;;5061895;28;20398;-62
2022/07/02 09:14:08;;;;;;;4.63;1.02;;;;;;;;;;5051744;28;20379;-63
2022/07/02 09:16:34;;;;;;;5.43;1.17;;;;;;;;;;5057609;28;20044;-63
2022/07/02 09:19:00;;;;;;;3.78;1.10;;;;;;;;;;5054325;28;20051;-63
2022/07/02 09:21:26;;;;;;;4.18;1.40;;;;;;;;;;5053153;28;20060;-62
2022/07/02 09:23:52;;;;;;;6.70;1.50;;;;;;;;;;5055242;28;20037;-64
2022/07/02 09:26:22;;;;;;;4.25;1.15;;;;;;;;;;5062514;28;20079;-63
2022/07/02 09:29:01;;;;;;;5.72;1.40;;;;;;;;;;5064417;28;20036;-64
2022/07/02 09:31:31;;;;;;;5.70;1.45;;;;;;;;;;5069115;28;20143;-64
2022/07/02 09:33:58;;;;;;;6.53;2.03;;;;;;;;;;5065295;28;20054;-64
2022/07/02 09:36:24;;;;;;;5.07;1.60;;;;;;;;;;5071206;28;20110;-63
2022/07/02 09:38:52;;;;;;;3.15;1.17;;;;;;;;;;5070396;28;20048;-64
2022/07/02 09:44:26;;;;;;;6.05;1.20;;;;;;;;;;5057990;28;20509;-62
2022/07/02 09:46:52;;;;;;;6.20;1.50;;;;;;;;;;5070914;28;20473;-63
2022/07/02 09:49:19;;;;;;;3.42;1.10;;;;;;;;;;5061582;28;20495;-63
2022/07/02 09:51:54;;;;;;;3.72;1.30;;;20.90;99.90;;;;;;5033380;28;20037;-63
2022/07/02 09:54:23;;;;;;;7.40;1.40;;;21.00;99.90;;;;;;5034790;28;20095;-63
2022/07/02 09:56:56;;;;;;;6.53;1.30;;;21.00;99.90;;;;;;5051788;28;20430;-63
2022/07/02 09:59:23;;;;;;;4.30;1.30;;;20.80;99.90;;;;;;5057457;28;20044;-63
2022/07/02 10:01:50;;;;;;;4.78;1.30;;;20.80;99.90;;;;;;5061541;28;20505;-62
2022/07/02 10:04:25;;;;;;;6.07;1.52;;;21.10;99.90;;;;;;5047506;28;20127;-62
2022/07/02 10:06:52;;;;;;;8.27;1.48;;;20.80;99.90;;;;;;5055783;28;20041;-63
2022/07/02 10:09:20;;;;;;;6.03;1.73;;;20.90;99.90;;;;;;5063237;28;20076;-62
2022/07/02 10:11:46;;;;;;;3.95;1.50;;;;;;;;;;5053946;28;20112;-63
2022/07/02 10:14:15;;;;;;;4.25;1.50;;;20.90;99.90;;;;;;5070120;28;20128;-63
2022/07/02 10:16:42;;;;;;;3.25;1.08;;;20.80;99.90;;;;;;5069304;28;20041;-64
2022/07/02 10:19:10;;;;;;;4.13;1.10;;;21.10;99.90;;;;;;5070066;28;20089;-63
2022/07/02 10:21:38;;;;;;;6.30;1.45;;;20.90;99.90;;;;;;5069850;28;20063;-64
2022/07/02 10:24:06;;;;;;;3.47;1.20;;;21.10;99.90;;;;;;5067409;28;20414;-63
2022/07/02 10:26:35;;;;;;;3.05;1.10;;;;;;;;;;5065303;28;20045;-64
2022/07/02 10:29:03;;;;;;;3.50;1.23;;;;;;;;;;5057581;28;20074;-64
2022/07/02 10:31:39;;;;;;;2.17;1.00;;;;;;;;;;5035962;28;20041;-64
2022/07/02 10:34:43;;;;;;;6.03;1.30;;;;;;;;;;5054935;28;20037;-63
2022/07/02 10:37:11;;;;;;;7.35;1.48;;;;;;;;;;5041060;28;20037;-63
2022/07/02 10:39:43;;;;;;;3.00;0.90;;;;;;;;;;5054549;28;20490;-63
2022/07/02 10:42:09;;;;;;;3.58;1.10;;;;;;;;;;5056375;28;20041;-64
2022/07/02 10:44:42;;;;;;;4.40;1.20;;;;;;;;;;5066445;28;20116;-64
2022/07/02 10:47:25;;;;;;;7.65;1.40;;;21.70;99.90;;;;;;5074091;28;20041;-63
2022/07/02 10:49:58;;;;;;;3.65;1.00;;;21.80;99.90;;;;;;5074071;28;20498;-65
2022/07/02 10:52:49;;;;;;;3.08;1.20;;;21.80;99.90;;;;;;5075687;28;20170;-63
2022/07/02 10:55:30;;;;;;;2.85;0.93;;;21.90;97.50;;;;;;5072556;28;20049;-63
2022/07/02 10:58:03;;;;;;;2.42;0.95;;;22.00;96.20;;;;;;5071392;28;20500;-63
2022/07/02 11:00:30;;;;;;;8.10;2.00;;;;;;;;;;5055595;28;20049;-63
2022/07/02 11:02:57;;;;;;;3.08;1.20;;;;;;;;;;5053660;28;20044;-64
2022/07/02 11:05:24;;;;;;;3.17;1.15;;;;;;;;;;5062535;28;20044;-63
2022/07/02 11:07:50;;;;;;;4.45;1.27;;;;;;;;;;5074767;28;20389;-63
2022/07/02 11:10:16;;;;;;;5.13;1.23;;;;;;;;;;5073133;28;20036;-64
2022/07/02 11:12:42;;;;;;;4.43;1.90;;;;;;;;;;5073470;28;20035;-63
2022/07/02 11:15:17;;;;;;;3.55;1.30;;;;;;;;;;5073775;28;20042;-64
2022/07/02 11:17:47;;;;;;;4.63;1.30;;;;;;;;;;5073276;28;20048;-63
2022/07/02 11:20:14;;;;;;;5.03;1.50;;;;;;;;;;5063181;28;20418;-64
2022/07/02 11:22:40;;;;;;;3.80;1.30;;;;;;;;;;5067541;28;20044;-63
2022/07/02 11:25:06;;;;;;;3.85;1.45;;;;;;;;;;5071557;28;20037;-64
2022/07/02 11:27:32;;;;;;;6.53;1.48;;;;;;;;;;5071991;28;20389;-63
2022/07/02 11:30:00;;;;;;;5.88;1.75;;;;;;;;;;5056697;28;20465;-63
2022/07/02 11:32:35;;;;;;;5.28;1.38;;;;;;;;;;5072059;28;20071;-64
2022/07/02 11:35:00;;;;;;;3.70;1.25;;;22.10;99.50;;;;;;5054590;28;20136;-64
2022/07/02 11:37:26;;;;;;;4.38;1.13;;;22.90;99.90;;;;;;5063577;28;20112;-64
2022/07/02 11:39:52;;;;;;;4.78;1.20;;;23.10;99.90;;;;;;5054800;28;20074;-64
2022/07/02 11:42:17;;;;;;;3.50;1.02;;;22.90;99.90;;;;;;5052650;28;20045;-64
2022/07/02 11:44:43;;;;;;;5.85;1.33;;;22.70;97.80;;;;;;5053954;28;20090;-64
2022/07/02 11:47:09;;;;;;;2.97;1.20;;;22.80;99.90;;;;;;5055663;28;20383;-64
2022/07/02 11:49:38;;;;;;;5.30;1.40;;;22.10;99.90;;;;;;5058448;28;20033;-63
2022/07/02 11:52:06;;;;;;;5.00;1.05;;;22.80;89.20;;;;;;5072854;28;20378;-63
2022/07/02 11:54:32;;;;;;;5.68;1.65;;;;;;;;;;5064195;28;20051;-63
2022/07/02 11:56:58;;;;;;;3.22;1.00;;;22.60;99.90;;;;;;5035914;28;20486;-63
2022/07/02 11:59:25;;;;;;;3.40;1.10;;;22.90;99.90;;;;;;5052777;28;20124;-64
2022/07/02 12:01:52;;;;;;;4.00;1.00;;;22.90;91.10;;;;;;5053190;28;20041;-64
2022/07/02 12:04:22;;;;;;;4.97;1.10;;;22.90;91.10;;;;;;5053348;28;20045;-65
2022/07/02 12:06:51;;;;;;;3.25;1.10;;;22.80;89.50;;;;;;5054599;28;20506;-65
2022/07/02 12:09:22;;;;;;;7.55;1.77;;;22.50;99.90;;;;;;5054410;28;20028;-65
2022/07/02 12:11:48;;;;;;;4.00;1.20;;;22.60;88.20;;;;;;5053440;28;20103;-65
2022/07/02 12:14:15;;;;;;;3.53;0.90;;;22.50;91.10;;;;;;5036015;28;20521;-65
2022/07/02 12:16:44;;;;;;;3.28;1.08;;;22.60;90.50;;;;;;5055283;28;20045;-65
2022/07/02 12:19:12;;;;;;;4.13;1.05;;;22.70;91.40;;;;;;5051991;28;20099;-65
2022/07/02 12:21:45;;;;;;;2.78;0.90;;;22.70;99.90;;;;;;5055138;28;20044;-64
2022/07/02 12:24:28;;;;;;;3.53;1.07;;;23.00;87.70;;;;;;5052469;28;20120;-65
2022/07/02 12:27:00;;;;;;;3.15;0.90;;;22.90;89.20;;;;;;5052727;28;20128;-64
2022/07/02 12:32:16;;;;;;;3.80;1.10;;;;;;;;;;5055338;28;20044;-65
2022/07/02 12:34:43;;;;;;;2.95;0.90;;;23.40;91.50;;;;;;5053482;28;20033;-63
2022/07/02 12:37:29;;;;;;;3.45;1.35;;;23.50;90.10;;;;;;5052407;28;20204;-63
2022/07/02 12:40:03;;;;;;;2.05;0.90;;;;;;;;;;5072189;28;20384;-64
2022/07/02 12:42:33;;;;;;;3.10;1.17;;;23.30;99.90;;;;;;5074048;28;20040;-63
2022/07/02 12:45:04;;;;;;;6.30;1.20;;;23.50;76.90;;;;;;5070302;28;20133;-63
2022/07/02 12:47:38;;;;;;;3.85;0.80;;;23.50;99.90;;;;;;5061369;28;20026;-63
2022/07/02 12:50:05;;;;;;;2.38;0.80;;;23.50;92.40;;;;;;5073209;28;20040;-64
2022/07/02 12:52:42;;;;;;;2.47;0.90;;;23.50;72.60;;;;;;5056570;28;20059;-63
2022/07/02 12:55:35;;;;;;;1.75;0.80;;;23.70;87.80;;;;;;5056908;28;20362;-64
2022/07/02 12:58:10;;;;;;;2.83;1.00;;;23.60;76.90;;;;;;5059462;28;20449;-63
2022/07/02 13:00:38;;;;;;;7.35;1.08;;;23.60;81.40;;;;;;5052448;28;20359;-64
2022/07/02 13:03:08;;;;;;;4.20;1.50;;;23.50;96.90;;;;;;5050971;28;20041;-64
2022/07/02 13:05:36;;;;;;;1.75;0.90;;;23.40;83.40;;;;;;5053554;28;20045;-63
2022/07/02 13:08:02;;;;;;;1.75;0.80;;;;;;;;;;5067716;28;20033;-63
2022/07/02 13:10:28;;;;;;;2.63;1.00;;;;;;;;;;5052094;28;20041;-63
2022/07/02 13:12:54;;;;;;;2.88;1.00;;;;;;;;;;5035674;28;20039;-62
2022/07/02 13:15:21;;;;;;;3.17;0.90;;;;;;;;;;5052290;28;20048;-63
2022/07/02 13:17:47;;;;;;;5.47;1.65;;;;;;;;;;5053117;28;20520;-63
2022/07/02 13:20:13;;;;;;;4.15;1.30;;;;;;;;;;5052170;28;20060;-63
2022/07/02 13:22:42;;;;;;;2.53;1.08;;;23.10;72.30;;;;;;5035021;28;20400;-63
2022/07/02 13:25:10;;;;;;;3.72;0.98;;;22.90;72.50;;;;;;5052660;28;20045;-63
2022/07/02 13:27:38;;;;;;;2.67;0.95;;;;;;;;;;5052781;28;20100;-63
2022/07/02 13:30:05;;;;;;;3.80;1.10;;;23.00;99.90;;;;;;5052286;28;20051;-63
2022/07/02 13:32:31;;;;;;;4.50;0.90;;;;;;;;;;5067331;28;20040;-63
2022/07/02 13:34:57;;;;;;;3.13;1.10;;;23.00;72.30;;;;;;5068261;28;20050;-65
2022/07/02 13:37:23;;;;;;;2.65;1.00;;;23.10;72.70;;;;;;5051443;28;20041;-63
2022/07/02 13:39:48;;;;;;;2.97;0.82;;;23.40;73.40;;;;;;5060704;28;20037;-63
2022/07/02 13:42:14;;;;;;;3.58;0.90;;;23.60;73.00;;;;;;5064109;28;20040;-63
2022/07/02 13:44:40;;;;;;;2.20;0.90;;;23.60;71.50;;;;;;5053263;28;20037;-63
2022/07/02 13:47:06;;;;;;;3.58;0.65;;;23.50;71.90;;;;;;5052736;28;20060;-62
2022/07/02 13:49:32;;;;;;;3.95;0.80;;;23.40;72.90;;;;;;5051441;28;20044;-63
2022/07/02 13:51:59;;;;;;;2.97;0.90;;;23.30;71.20;;;;;;5051702;28;20517;-64
2022/07/02 13:54:25;;;;;;;4.07;0.80;;;23.40;70.90;;;;;;5035439;28;20041;-63
2022/07/02 13:56:51;;;;;;;3.47;0.85;;;23.50;70.20;;;;;;5062568;28;20136;-64
2022/07/02 13:59:16;;;;;;;2.95;0.77;;;23.80;71.80;;;;;;5059082;28;20099;-64
2022/07/02 14:01:45;;;;;;;3.08;0.90;;;24.10;89.80;;;;;;5067680;28;20570;-64
2022/07/02 14:04:11;;;;;;;3.15;0.90;;;24.30;87.10;;;;;;5051945;28;20041;-63
2022/07/02 14:06:37;;;;;;;2.42;1.00;;;24.30;86.30;;;;;;5054437;28;20043;-65
2022/07/02 14:09:03;;;;;;;3.03;1.02;;;24.50;86.90;;;;;;5053620;28;20041;-64
2022/07/02 14:11:29;;;;;;;7.32;1.40;;;24.50;85.70;;;;;;5063614;28;20041;-63
2022/07/02 14:13:55;;;;;;;5.68;1.30;;;24.50;84.00;;;;;;5051370;28;20040;-64